Terminal Aerodrome Forecast
Issued by NWS Upton, NY

Home | Current Version | Previous Version | Text Only | Print | Product List | Glossary On
Versions: 1 2 3 4 5 6 7 8 9 10 11 12 13 14 15 16 17 18 19 20 21 22 23 24 25 26 27
000
FTUS41 KOKX 041637 AAB
TAFEWR
TAF AMD
KEWR 041637Z 0417/0518 24013G21KT P6SM SCT100
     FM041800 22015G23KT P6SM SCT100
     FM050000 21012KT P6SM FEW100
     FM050700 23007KT P6SM FEW070 SCT250
     FM050900 25006KT P6SM SCT070 SCT150 BKN250
     FM051300 28006KT P6SM SCT070 SCT150 BKN250 PROB30 0515/0518
      -SHRA BKN070=

USA.gov is the U.S. government's official web portal to all federal, state and local government web resources and services.